Kearns, Utah
Current Conditions -  °F | °C
As of 1:53 AM on Friday 24 Oct 2014 (Local Time) from KSLC Reporting Station
Scattered Clouds Scattered Clouds  
Wind Chill: 54°   Ceiling: Unl
Heat Index: 54°   Visibility: 10mi
Dew Point: 39°   Wind: 0mph
Humidity: 57%   Direction: NA
Pressure: 30.1"   Gusts: NA
Location:  40.65°N, 111.96°W
Report Text: KSLC 240753Z 00000KT 10SM SCT200 12/04 A3010 RMK AO2 SLP159 T01220039 $
Loading
Personal Weather Stations






























Interactive Weather Map New forecast layout! Learn more

10-Day Weather Forecast

Advertisements
Track Severe Weather on mobile